sensor_id;sensor_type;location;lat;lon;timestamp;P1;durP1;ratioP1;P2;durP2;ratioP2
24279;SDS011;12395;42.808;23.408;2022-11-03T00:01:48;7.80;;;3.55;;
24279;SDS011;12395;42.808;23.408;2022-11-03T00:04:18;9.35;;;3.95;;
24279;SDS011;12395;42.808;23.408;2022-11-03T00:06:46;11.02;;;3.80;;
24279;SDS011;12395;42.808;23.408;2022-11-03T00:09:16;8.77;;;3.63;;
24279;SDS011;12395;42.808;23.408;2022-11-03T00:11:43;9.57;;;3.83;;
24279;SDS011;12395;42.808;23.408;2022-11-03T00:14:10;8.85;;;3.67;;
24279;SDS011;12395;42.808;23.408;2022-11-03T00:16:37;10.50;;;3.90;;
24279;SDS011;12395;42.808;23.408;2022-11-03T00:19:03;9.90;;;4.03;;
24279;SDS011;12395;42.808;23.408;2022-11-03T00:21:29;11.45;;;3.25;;
24279;SDS011;12395;42.808;23.408;2022-11-03T00:23:55;10.85;;;4.05;;
24279;SDS011;12395;42.808;23.408;2022-11-03T00:26:21;10.02;;;4.10;;
24279;SDS011;12395;42.808;23.408;2022-11-03T00:33:44;9.82;;;3.75;;
24279;SDS011;12395;42.808;23.408;2022-11-03T00:36:20;11.73;;;3.90;;
24279;SDS011;12395;42.808;23.408;2022-11-03T00:38:50;8.55;;;3.50;;
24279;SDS011;12395;42.808;23.408;2022-11-03T00:41:15;8.57;;;3.40;;
24279;SDS011;12395;42.808;23.408;2022-11-03T00:43:42;11.43;;;3.92;;
24279;SDS011;12395;42.808;23.408;2022-11-03T00:46:07;10.13;;;3.80;;
24279;SDS011;12395;42.808;23.408;2022-11-03T00:48:34;9.93;;;3.60;;
24279;SDS011;12395;42.808;23.408;2022-11-03T00:53:41;9.02;;;3.90;;
24279;SDS011;12395;42.808;23.408;2022-11-03T00:56:10;9.63;;;4.03;;
24279;SDS011;12395;42.808;23.408;2022-11-03T00:58:38;9.20;;;3.88;;
24279;SDS011;12395;42.808;23.408;2022-11-03T01:01:09;7.47;;;3.75;;
24279;SDS011;12395;42.808;23.408;2022-11-03T01:03:40;7.95;;;3.67;;
24279;SDS011;12395;42.808;23.408;2022-11-03T01:06:27;10.35;;;4.00;;
24279;SDS011;12395;42.808;23.408;2022-11-03T01:09:11;8.82;;;4.03;;
24279;SDS011;12395;42.808;23.408;2022-11-03T01:11:36;10.40;;;4.00;;
24279;SDS011;12395;42.808;23.408;2022-11-03T01:14:12;7.53;;;3.80;;
24279;SDS011;12395;42.808;23.408;2022-11-03T01:16:39;9.45;;;3.72;;
24279;SDS011;12395;42.808;23.408;2022-11-03T01:19:05;9.75;;;3.70;;
24279;SDS011;12395;42.808;23.408;2022-11-03T01:21:31;11.82;;;4.07;;
24279;SDS011;12395;42.808;23.408;2022-11-03T01:23:58;10.27;;;4.10;;
24279;SDS011;12395;42.808;23.408;2022-11-03T01:26:25;9.23;;;4.57;;
24279;SDS011;12395;42.808;23.408;2022-11-03T01:28:51;7.55;;;3.55;;
24279;SDS011;12395;42.808;23.408;2022-11-03T01:31:17;6.75;;;3.70;;
24279;SDS011;12395;42.808;23.408;2022-11-03T01:33:45;8.45;;;4.00;;
24279;SDS011;12395;42.808;23.408;2022-11-03T01:36:11;9.70;;;3.58;;
24279;SDS011;12395;42.808;23.408;2022-11-03T01:38:38;10.13;;;4.53;;
24279;SDS011;12395;42.808;23.408;2022-11-03T01:41:04;11.27;;;4.03;;
24279;SDS011;12395;42.808;23.408;2022-11-03T01:43:31;7.72;;;3.67;;
24279;SDS011;12395;42.808;23.408;2022-11-03T01:48:26;9.30;;;4.22;;
24279;SDS011;12395;42.808;23.408;2022-11-03T01:50:52;10.85;;;4.32;;
24279;SDS011;12395;42.808;23.408;2022-11-03T01:53:17;15.48;;;5.95;;
24279;SDS011;12395;42.808;23.408;2022-11-03T01:55:44;14.55;;;5.40;;
24279;SDS011;12395;42.808;23.408;2022-11-03T01:58:16;11.20;;;4.60;;
24279;SDS011;12395;42.808;23.408;2022-11-03T02:00:46;11.55;;;4.53;;
24279;SDS011;12395;42.808;23.408;2022-11-03T02:03:14;13.60;;;5.00;;
24279;SDS011;12395;42.808;23.408;2022-11-03T02:05:42;10.95;;;4.47;;
24279;SDS011;12395;42.808;23.408;2022-11-03T02:08:11;12.50;;;4.78;;
24279;SDS011;12395;42.808;23.408;2022-11-03T02:10:40;10.00;;;4.18;;
24279;SDS011;12395;42.808;23.408;2022-11-03T02:13:08;9.68;;;4.10;;
24279;SDS011;12395;42.808;23.408;2022-11-03T02:15:41;14.98;;;3.90;;
24279;SDS011;12395;42.808;23.408;2022-11-03T02:18:08;10.63;;;4.15;;
24279;SDS011;12395;42.808;23.408;2022-11-03T02:20:35;9.18;;;3.90;;
24279;SDS011;12395;42.808;23.408;2022-11-03T02:25:48;7.20;;;3.35;;
24279;SDS011;12395;42.808;23.408;2022-11-03T02:28:20;8.57;;;3.78;;
24279;SDS011;12395;42.808;23.408;2022-11-03T02:30:52;8.82;;;3.50;;
24279;SDS011;12395;42.808;23.408;2022-11-03T02:33:36;9.32;;;3.53;;
24279;SDS011;12395;42.808;23.408;2022-11-03T02:36:14;8.15;;;3.28;;
24279;SDS011;12395;42.808;23.408;2022-11-03T02:38:55;11.13;;;3.72;;
24279;SDS011;12395;42.808;23.408;2022-11-03T02:41:25;8.90;;;3.60;;
24279;SDS011;12395;42.808;23.408;2022-11-03T02:43:53;13.43;;;4.60;;
24279;SDS011;12395;42.808;23.408;2022-11-03T02:46:20;10.77;;;4.18;;
24279;SDS011;12395;42.808;23.408;2022-11-03T02:48:49;10.27;;;4.15;;
24279;SDS011;12395;42.808;23.408;2022-11-03T02:51:16;10.05;;;4.20;;
24279;SDS011;12395;42.808;23.408;2022-11-03T02:53:42;9.10;;;3.83;;
24279;SDS011;12395;42.808;23.408;2022-11-03T02:56:13;8.77;;;3.65;;
24279;SDS011;12395;42.808;23.408;2022-11-03T02:58:52;8.25;;;3.80;;
24279;SDS011;12395;42.808;23.408;2022-11-03T03:01:31;9.30;;;3.38;;
24279;SDS011;12395;42.808;23.408;2022-11-03T03:04:10;8.75;;;3.45;;
24279;SDS011;12395;42.808;23.408;2022-11-03T03:06:41;9.00;;;3.90;;
24279;SDS011;12395;42.808;23.408;2022-11-03T03:09:15;9.60;;;3.80;;
24279;SDS011;12395;42.808;23.408;2022-11-03T03:11:47;7.13;;;3.58;;
24279;SDS011;12395;42.808;23.408;2022-11-03T03:14:17;7.97;;;3.65;;
24279;SDS011;12395;42.808;23.408;2022-11-03T03:19:39;9.60;;;3.80;;
24279;SDS011;12395;42.808;23.408;2022-11-03T03:22:13;7.75;;;3.80;;
24279;SDS011;12395;42.808;23.408;2022-11-03T03:24:51;12.30;;;4.00;;
24279;SDS011;12395;42.808;23.408;2022-11-03T03:27:25;7.50;;;4.03;;
24279;SDS011;12395;42.808;23.408;2022-11-03T03:29:55;11.60;;;4.10;;
24279;SDS011;12395;42.808;23.408;2022-11-03T03:32:25;10.15;;;4.60;;
24279;SDS011;12395;42.808;23.408;2022-11-03T03:34:55;11.18;;;4.40;;
24279;SDS011;12395;42.808;23.408;2022-11-03T03:37:24;13.13;;;5.10;;
24279;SDS011;12395;42.808;23.408;2022-11-03T03:39:54;18.45;;;6.68;;
24279;SDS011;12395;42.808;23.408;2022-11-03T03:42:24;10.77;;;5.05;;
24279;SDS011;12395;42.808;23.408;2022-11-03T03:44:52;10.80;;;4.45;;
24279;SDS011;12395;42.808;23.408;2022-11-03T03:47:24;13.15;;;4.25;;
24279;SDS011;12395;42.808;23.408;2022-11-03T03:49:53;8.85;;;4.75;;
24279;SDS011;12395;42.808;23.408;2022-11-03T03:52:18;12.82;;;5.03;;
24279;SDS011;12395;42.808;23.408;2022-11-03T03:54:44;14.23;;;6.13;;
24279;SDS011;12395;42.808;23.408;2022-11-03T03:57:12;11.10;;;4.47;;
24279;SDS011;12395;42.808;23.408;2022-11-03T03:59:40;10.90;;;5.03;;
24279;SDS011;12395;42.808;23.408;2022-11-03T04:02:06;9.98;;;4.72;;
24279;SDS011;12395;42.808;23.408;2022-11-03T04:04:31;9.10;;;4.68;;
24279;SDS011;12395;42.808;23.408;2022-11-03T04:06:57;11.40;;;4.70;;
24279;SDS011;12395;42.808;23.408;2022-11-03T04:09:41;14.93;;;5.70;;
24279;SDS011;12395;42.808;23.408;2022-11-03T04:12:07;13.52;;;5.38;;
24279;SDS011;12395;42.808;23.408;2022-11-03T04:14:51;13.50;;;4.80;;
24279;SDS011;12395;42.808;23.408;2022-11-03T04:17:35;11.65;;;4.80;;
24279;SDS011;12395;42.808;23.408;2022-11-03T04:20:26;12.48;;;4.82;;
24279;SDS011;12395;42.808;23.408;2022-11-03T04:23:10;10.77;;;4.82;;
24279;SDS011;12395;42.808;23.408;2022-11-03T04:25:36;10.93;;;4.90;;
24279;SDS011;12395;42.808;23.408;2022-11-03T04:28:06;10.18;;;4.55;;
24279;SDS011;12395;42.808;23.408;2022-11-03T04:30:34;11.13;;;5.07;;
24279;SDS011;12395;42.808;23.408;2022-11-03T04:32:59;13.23;;;4.53;;
24279;SDS011;12395;42.808;23.408;2022-11-03T04:35:25;10.48;;;4.13;;
24279;SDS011;12395;42.808;23.408;2022-11-03T04:40:36;11.23;;;4.53;;
24279;SDS011;12395;42.808;23.408;2022-11-03T04:43:09;9.63;;;4.20;;
24279;SDS011;12395;42.808;23.408;2022-11-03T04:45:36;9.10;;;4.47;;
24279;SDS011;12395;42.808;23.408;2022-11-03T04:48:05;9.40;;;4.10;;
24279;SDS011;12395;42.808;23.408;2022-11-03T04:50:39;11.90;;;4.88;;
24279;SDS011;12395;42.808;23.408;2022-11-03T04:53:10;9.85;;;4.20;;
24279;SDS011;12395;42.808;23.408;2022-11-03T04:55:40;8.77;;;4.03;;
24279;SDS011;12395;42.808;23.408;2022-11-03T04:58:25;10.70;;;4.25;;
24279;SDS011;12395;42.808;23.408;2022-11-03T05:00:59;9.50;;;3.88;;
24279;SDS011;12395;42.808;23.408;2022-11-03T05:03:31;9.75;;;3.85;;
24279;SDS011;12395;42.808;23.408;2022-11-03T05:05:59;11.43;;;4.50;;
24279;SDS011;12395;42.808;23.408;2022-11-03T05:08:33;9.35;;;3.92;;
24279;SDS011;12395;42.808;23.408;2022-11-03T05:10:58;11.13;;;4.43;;
24279;SDS011;12395;42.808;23.408;2022-11-03T05:13:24;8.48;;;4.22;;
24279;SDS011;12395;42.808;23.408;2022-11-03T05:15:53;9.32;;;4.20;;
24279;SDS011;12395;42.808;23.408;2022-11-03T05:18:31;7.28;;;3.70;;
24279;SDS011;12395;42.808;23.408;2022-11-03T05:21:08;9.07;;;4.15;;
24279;SDS011;12395;42.808;23.408;2022-11-03T05:23:37;9.63;;;4.13;;
24279;SDS011;12395;42.808;23.408;2022-11-03T05:26:04;8.23;;;4.22;;
24279;SDS011;12395;42.808;23.408;2022-11-03T05:28:36;11.18;;;4.53;;
24279;SDS011;12395;42.808;23.408;2022-11-03T05:33:52;9.23;;;4.55;;
24279;SDS011;12395;42.808;23.408;2022-11-03T05:36:24;10.23;;;5.13;;
24279;SDS011;12395;42.808;23.408;2022-11-03T05:38:53;8.68;;;4.78;;
24279;SDS011;12395;42.808;23.408;2022-11-03T05:41:23;10.95;;;4.53;;
24279;SDS011;12395;42.808;23.408;2022-11-03T05:46:28;11.75;;;4.53;;
24279;SDS011;12395;42.808;23.408;2022-11-03T05:48:56;15.27;;;4.85;;
24279;SDS011;12395;42.808;23.408;2022-11-03T05:51:26;10.80;;;5.10;;
24279;SDS011;12395;42.808;23.408;2022-11-03T05:53:57;10.75;;;4.88;;
24279;SDS011;12395;42.808;23.408;2022-11-03T05:56:26;9.75;;;4.10;;
24279;SDS011;12395;42.808;23.408;2022-11-03T05:58:55;11.65;;;4.53;;
24279;SDS011;12395;42.808;23.408;2022-11-03T06:01:30;10.60;;;4.15;;
24279;SDS011;12395;42.808;23.408;2022-11-03T06:07:10;11.52;;;4.68;;
24279;SDS011;12395;42.808;23.408;2022-11-03T06:09:39;10.95;;;4.00;;
24279;SDS011;12395;42.808;23.408;2022-11-03T06:12:05;9.88;;;4.30;;
24279;SDS011;12395;42.808;23.408;2022-11-03T06:14:34;11.18;;;4.28;;
24279;SDS011;12395;42.808;23.408;2022-11-03T06:19:34;13.23;;;5.07;;
24279;SDS011;12395;42.808;23.408;2022-11-03T06:24:40;13.73;;;5.50;;
24279;SDS011;12395;42.808;23.408;2022-11-03T06:27:17;11.35;;;4.60;;
24279;SDS011;12395;42.808;23.408;2022-11-03T06:29:56;12.18;;;4.72;;
24279;SDS011;12395;42.808;23.408;2022-11-03T06:32:43;12.13;;;5.38;;
24279;SDS011;12395;42.808;23.408;2022-11-03T06:35:08;13.68;;;5.60;;
24279;SDS011;12395;42.808;23.408;2022-11-03T06:37:37;12.25;;;5.65;;
24279;SDS011;12395;42.808;23.408;2022-11-03T06:40:48;16.67;;;6.90;;
24279;SDS011;12395;42.808;23.408;2022-11-03T06:42:54;15.48;;;6.93;;
24279;SDS011;12395;42.808;23.408;2022-11-03T06:47:52;12.68;;;5.88;;
24279;SDS011;12395;42.808;23.408;2022-11-03T06:50:19;14.63;;;5.75;;
24279;SDS011;12395;42.808;23.408;2022-11-03T06:52:58;16.77;;;6.90;;
24279;SDS011;12395;42.808;23.408;2022-11-03T06:55:28;20.08;;;8.02;;
24279;SDS011;12395;42.808;23.408;2022-11-03T07:00:27;13.82;;;7.28;;
24279;SDS011;12395;42.808;23.408;2022-11-03T07:05:48;19.30;;;9.20;;
24279;SDS011;12395;42.808;23.408;2022-11-03T07:10:39;19.63;;;9.50;;
24279;SDS011;12395;42.808;23.408;2022-11-03T07:13:14;23.08;;;9.52;;
24279;SDS011;12395;42.808;23.408;2022-11-03T07:15:43;20.38;;;10.32;;
24279;SDS011;12395;42.808;23.408;2022-11-03T07:18:18;20.67;;;9.40;;
24279;SDS011;12395;42.808;23.408;2022-11-03T07:20:47;20.80;;;10.15;;
24279;SDS011;12395;42.808;23.408;2022-11-03T07:23:15;19.55;;;10.30;;
24279;SDS011;12395;42.808;23.408;2022-11-03T07:25:44;19.45;;;10.20;;
24279;SDS011;12395;42.808;23.408;2022-11-03T07:28:23;21.45;;;10.27;;
24279;SDS011;12395;42.808;23.408;2022-11-03T07:30:55;20.08;;;9.98;;
24279;SDS011;12395;42.808;23.408;2022-11-03T07:33:23;21.55;;;10.35;;
24279;SDS011;12395;42.808;23.408;2022-11-03T07:35:51;20.40;;;10.25;;
24279;SDS011;12395;42.808;23.408;2022-11-03T07:38:21;22.77;;;10.27;;
24279;SDS011;12395;42.808;23.408;2022-11-03T07:40:48;20.13;;;9.90;;
24279;SDS011;12395;42.808;23.408;2022-11-03T07:45:56;20.08;;;9.85;;
24279;SDS011;12395;42.808;23.408;2022-11-03T07:48:35;18.67;;;9.82;;
24279;SDS011;12395;42.808;23.408;2022-11-03T07:51:50;23.65;;;10.02;;
24279;SDS011;12395;42.808;23.408;2022-11-03T07:56:41;18.13;;;9.98;;
24279;SDS011;12395;42.808;23.408;2022-11-03T08:01:41;22.80;;;9.52;;
24279;SDS011;12395;42.808;23.408;2022-11-03T08:04:09;17.30;;;9.20;;
24279;SDS011;12395;42.808;23.408;2022-11-03T08:06:41;22.30;;;8.95;;
24279;SDS011;12395;42.808;23.408;2022-11-03T08:09:06;20.13;;;9.05;;
24279;SDS011;12395;42.808;23.408;2022-11-03T08:11:32;20.27;;;8.77;;
24279;SDS011;12395;42.808;23.408;2022-11-03T08:13:57;21.08;;;9.60;;
24279;SDS011;12395;42.808;23.408;2022-11-03T08:16:23;22.48;;;9.00;;
24279;SDS011;12395;42.808;23.408;2022-11-03T08:18:51;20.80;;;9.02;;
24279;SDS011;12395;42.808;23.408;2022-11-03T08:21:16;17.52;;;8.82;;
24279;SDS011;12395;42.808;23.408;2022-11-03T08:23:42;15.68;;;8.05;;
24279;SDS011;12395;42.808;23.408;2022-11-03T08:26:07;19.67;;;8.73;;
24279;SDS011;12395;42.808;23.408;2022-11-03T08:28:33;17.17;;;7.50;;
24279;SDS011;12395;42.808;23.408;2022-11-03T08:30:59;14.88;;;7.75;;
24279;SDS011;12395;42.808;23.408;2022-11-03T08:33:28;17.58;;;7.90;;
24279;SDS011;12395;42.808;23.408;2022-11-03T08:35:57;18.63;;;8.38;;
24279;SDS011;12395;42.808;23.408;2022-11-03T08:38:23;16.05;;;7.82;;
24279;SDS011;12395;42.808;23.408;2022-11-03T08:40:49;18.55;;;7.72;;
24279;SDS011;12395;42.808;23.408;2022-11-03T08:43:14;15.70;;;7.22;;
24279;SDS011;12395;42.808;23.408;2022-11-03T08:45:39;15.77;;;7.15;;
24279;SDS011;12395;42.808;23.408;2022-11-03T08:48:05;18.48;;;7.40;;
24279;SDS011;12395;42.808;23.408;2022-11-03T08:50:30;16.58;;;7.60;;
24279;SDS011;12395;42.808;23.408;2022-11-03T08:52:56;13.70;;;7.18;;
24279;SDS011;12395;42.808;23.408;2022-11-03T08:55:21;16.58;;;7.97;;
24279;SDS011;12395;42.808;23.408;2022-11-03T08:57:46;15.80;;;7.53;;
24279;SDS011;12395;42.808;23.408;2022-11-03T09:00:12;14.90;;;7.40;;
24279;SDS011;12395;42.808;23.408;2022-11-03T09:02:38;16.35;;;7.18;;
24279;SDS011;12395;42.808;23.408;2022-11-03T09:05:03;16.73;;;7.28;;
24279;SDS011;12395;42.808;23.408;2022-11-03T09:07:31;17.33;;;6.72;;
24279;SDS011;12395;42.808;23.408;2022-11-03T09:09:57;20.02;;;8.30;;
24279;SDS011;12395;42.808;23.408;2022-11-03T09:12:22;14.85;;;7.38;;
24279;SDS011;12395;42.808;23.408;2022-11-03T09:14:48;17.00;;;7.97;;
24279;SDS011;12395;42.808;23.408;2022-11-03T09:17:13;19.55;;;7.90;;
24279;SDS011;12395;42.808;23.408;2022-11-03T09:19:38;14.48;;;8.02;;
24279;SDS011;12395;42.808;23.408;2022-11-03T09:22:04;15.52;;;7.90;;
24279;SDS011;12395;42.808;23.408;2022-11-03T09:24:29;16.42;;;8.30;;
24279;SDS011;12395;42.808;23.408;2022-11-03T09:26:55;16.02;;;7.78;;
24279;SDS011;12395;42.808;23.408;2022-11-03T09:29:20;17.35;;;7.60;;
24279;SDS011;12395;42.808;23.408;2022-11-03T09:31:46;18.58;;;8.02;;
24279;SDS011;12395;42.808;23.408;2022-11-03T09:34:11;13.93;;;6.53;;
24279;SDS011;12395;42.808;23.408;2022-11-03T09:36:37;15.52;;;6.65;;
24279;SDS011;12395;42.808;23.408;2022-11-03T09:39:03;14.70;;;6.53;;
24279;SDS011;12395;42.808;23.408;2022-11-03T09:41:29;13.32;;;7.00;;
24279;SDS011;12395;42.808;23.408;2022-11-03T09:43:56;17.40;;;7.35;;
24279;SDS011;12395;42.808;23.408;2022-11-03T09:46:22;16.85;;;7.20;;
24279;SDS011;12395;42.808;23.408;2022-11-03T09:48:49;15.00;;;6.45;;
24279;SDS011;12395;42.808;23.408;2022-11-03T09:51:18;14.45;;;6.22;;
24279;SDS011;12395;42.808;23.408;2022-11-03T09:53:45;16.20;;;6.50;;
24279;SDS011;12395;42.808;23.408;2022-11-03T09:56:12;17.67;;;6.72;;
24279;SDS011;12395;42.808;23.408;2022-11-03T09:58:37;14.05;;;6.50;;
24279;SDS011;12395;42.808;23.408;2022-11-03T10:01:04;13.15;;;5.97;;
24279;SDS011;12395;42.808;23.408;2022-11-03T10:03:30;15.05;;;6.18;;
24279;SDS011;12395;42.808;23.408;2022-11-03T10:05:55;12.27;;;5.85;;
24279;SDS011;12395;42.808;23.408;2022-11-03T10:08:22;15.02;;;6.38;;
24279;SDS011;12395;42.808;23.408;2022-11-03T10:10:50;14.73;;;6.22;;
24279;SDS011;12395;42.808;23.408;2022-11-03T10:13:35;12.60;;;6.53;;
24279;SDS011;12395;42.808;23.408;2022-11-03T10:16:06;14.27;;;6.22;;
24279;SDS011;12395;42.808;23.408;2022-11-03T10:18:34;13.82;;;5.88;;
24279;SDS011;12395;42.808;23.408;2022-11-03T10:21:05;15.02;;;5.85;;
24279;SDS011;12395;42.808;23.408;2022-11-03T10:23:36;12.05;;;5.60;;
24279;SDS011;12395;42.808;23.408;2022-11-03T10:26:12;15.00;;;4.93;;
24279;SDS011;12395;42.808;23.408;2022-11-03T10:28:56;11.95;;;5.38;;
24279;SDS011;12395;42.808;23.408;2022-11-03T10:31:23;10.90;;;4.60;;
24279;SDS011;12395;42.808;23.408;2022-11-03T10:33:59;10.43;;;4.60;;
24279;SDS011;12395;42.808;23.408;2022-11-03T10:36:26;12.73;;;4.55;;
24279;SDS011;12395;42.808;23.408;2022-11-03T10:38:53;11.48;;;4.15;;
24279;SDS011;12395;42.808;23.408;2022-11-03T10:41:22;10.70;;;4.38;;
24279;SDS011;12395;42.808;23.408;2022-11-03T10:46:27;13.25;;;4.90;;
24279;SDS011;12395;42.808;23.408;2022-11-03T10:51:34;11.63;;;4.88;;
24279;SDS011;12395;42.808;23.408;2022-11-03T10:54:00;9.30;;;4.22;;
24279;SDS011;12395;42.808;23.408;2022-11-03T10:56:27;13.82;;;4.43;;
24279;SDS011;12395;42.808;23.408;2022-11-03T10:58:53;9.32;;;3.92;;
24279;SDS011;12395;42.808;23.408;2022-11-03T11:01:19;11.17;;;3.63;;
24279;SDS011;12395;42.808;23.408;2022-11-03T11:03:45;8.98;;;3.65;;
24279;SDS011;12395;42.808;23.408;2022-11-03T11:08:48;7.50;;;3.80;;
24279;SDS011;12395;42.808;23.408;2022-11-03T11:11:18;9.95;;;4.05;;
24279;SDS011;12395;42.808;23.408;2022-11-03T11:13:52;10.30;;;4.28;;
24279;SDS011;12395;42.808;23.408;2022-11-03T11:16:50;10.90;;;3.80;;
24279;SDS011;12395;42.808;23.408;2022-11-03T11:19:17;13.63;;;4.38;;
24279;SDS011;12395;42.808;23.408;2022-11-03T11:24:09;12.02;;;3.80;;
24279;SDS011;12395;42.808;23.408;2022-11-03T11:26:35;10.52;;;4.25;;
24279;SDS011;12395;42.808;23.408;2022-11-03T11:31:33;11.43;;;3.40;;
24279;SDS011;12395;42.808;23.408;2022-11-03T11:36:35;8.60;;;3.20;;
24279;SDS011;12395;42.808;23.408;2022-11-03T11:39:02;9.75;;;3.55;;
24279;SDS011;12395;42.808;23.408;2022-11-03T11:52:35;9.93;;;3.42;;
24279;SDS011;12395;42.808;23.408;2022-11-03T11:55:02;10.25;;;3.47;;
24279;SDS011;12395;42.808;23.408;2022-11-03T11:57:29;7.90;;;3.28;;
24279;SDS011;12395;42.808;23.408;2022-11-03T11:59:59;10.60;;;3.40;;
24279;SDS011;12395;42.808;23.408;2022-11-03T12:02:26;10.43;;;2.65;;
24279;SDS011;12395;42.808;23.408;2022-11-03T12:04:58;8.50;;;2.78;;
24279;SDS011;12395;42.808;23.408;2022-11-03T12:07:31;8.57;;;2.72;;
24279;SDS011;12395;42.808;23.408;2022-11-03T12:12:41;7.25;;;2.40;;
24279;SDS011;12395;42.808;23.408;2022-11-03T12:15:46;10.07;;;3.00;;
24279;SDS011;12395;42.808;23.408;2022-11-03T12:21:13;6.55;;;2.00;;
24279;SDS011;12395;42.808;23.408;2022-11-03T12:23:58;11.35;;;3.35;;
24279;SDS011;12395;42.808;23.408;2022-11-03T12:28:49;14.00;;;3.03;;
24279;SDS011;12395;42.808;23.408;2022-11-03T12:31:15;10.90;;;3.33;;
24279;SDS011;12395;42.808;23.408;2022-11-03T12:33:40;8.38;;;3.22;;
24279;SDS011;12395;42.808;23.408;2022-11-03T12:36:06;8.60;;;2.80;;
24279;SDS011;12395;42.808;23.408;2022-11-03T12:38:31;9.88;;;3.00;;
24279;SDS011;12395;42.808;23.408;2022-11-03T12:40:57;8.95;;;3.50;;
24279;SDS011;12395;42.808;23.408;2022-11-03T12:43:42;11.77;;;2.92;;
24279;SDS011;12395;42.808;23.408;2022-11-03T12:46:07;8.48;;;2.92;;
24279;SDS011;12395;42.808;23.408;2022-11-03T12:48:33;10.20;;;2.85;;
24279;SDS011;12395;42.808;23.408;2022-11-03T12:50:58;9.13;;;3.05;;
24279;SDS011;12395;42.808;23.408;2022-11-03T12:53:23;7.40;;;3.00;;
24279;SDS011;12395;42.808;23.408;2022-11-03T12:55:49;8.93;;;2.55;;
24279;SDS011;12395;42.808;23.408;2022-11-03T12:58:14;8.18;;;2.92;;
24279;SDS011;12395;42.808;23.408;2022-11-03T13:00:39;7.40;;;2.42;;
24279;SDS011;12395;42.808;23.408;2022-11-03T13:03:05;7.38;;;2.42;;
24279;SDS011;12395;42.808;23.408;2022-11-03T13:05:30;7.68;;;2.38;;
24279;SDS011;12395;42.808;23.408;2022-11-03T13:07:56;7.85;;;2.30;;
24279;SDS011;12395;42.808;23.408;2022-11-03T13:10:21;6.75;;;2.00;;
24279;SDS011;12395;42.808;23.408;2022-11-03T13:12:47;6.60;;;2.15;;
24279;SDS011;12395;42.808;23.408;2022-11-03T13:15:12;9.00;;;2.58;;
24279;SDS011;12395;42.808;23.408;2022-11-03T13:17:39;5.32;;;2.20;;
24279;SDS011;12395;42.808;23.408;2022-11-03T13:20:05;4.50;;;1.80;;
24279;SDS011;12395;42.808;23.408;2022-11-03T13:22:31;5.55;;;1.90;;
24279;SDS011;12395;42.808;23.408;2022-11-03T13:24:57;6.53;;;2.40;;
24279;SDS011;12395;42.808;23.408;2022-11-03T13:27:22;6.18;;;2.20;;
24279;SDS011;12395;42.808;23.408;2022-11-03T13:29:47;6.25;;;2.50;;
24279;SDS011;12395;42.808;23.408;2022-11-03T13:32:13;7.10;;;2.03;;
24279;SDS011;12395;42.808;23.408;2022-11-03T13:34:38;6.18;;;2.83;;
24279;SDS011;12395;42.808;23.408;2022-11-03T13:37:04;7.57;;;2.20;;
24279;SDS011;12395;42.808;23.408;2022-11-03T13:39:29;5.85;;;2.20;;
24279;SDS011;12395;42.808;23.408;2022-11-03T13:41:54;6.82;;;2.28;;
24279;SDS011;12395;42.808;23.408;2022-11-03T13:44:20;10.80;;;2.60;;
24279;SDS011;12395;42.808;23.408;2022-11-03T13:46:45;8.65;;;2.53;;
24279;SDS011;12395;42.808;23.408;2022-11-03T13:49:11;8.88;;;2.55;;
24279;SDS011;12395;42.808;23.408;2022-11-03T13:51:36;8.15;;;2.95;;
24279;SDS011;12395;42.808;23.408;2022-11-03T13:54:02;7.38;;;2.40;;
24279;SDS011;12395;42.808;23.408;2022-11-03T13:56:27;7.47;;;2.38;;
24279;SDS011;12395;42.808;23.408;2022-11-03T13:58:52;7.30;;;2.22;;
24279;SDS011;12395;42.808;23.408;2022-11-03T14:01:19;9.63;;;2.22;;
24279;SDS011;12395;42.808;23.408;2022-11-03T14:03:44;5.93;;;2.20;;
24279;SDS011;12395;42.808;23.408;2022-11-03T14:06:10;7.20;;;2.10;;
24279;SDS011;12395;42.808;23.408;2022-11-03T14:08:35;8.20;;;2.20;;
24279;SDS011;12395;42.808;23.408;2022-11-03T14:11:01;8.45;;;2.10;;
24279;SDS011;12395;42.808;23.408;2022-11-03T14:13:49;8.50;;;2.53;;
24279;SDS011;12395;42.808;23.408;2022-11-03T14:16:14;10.23;;;2.70;;
24279;SDS011;12395;42.808;23.408;2022-11-03T14:18:40;6.63;;;2.50;;
24279;SDS011;12395;42.808;23.408;2022-11-03T14:21:05;7.05;;;2.38;;
24279;SDS011;12395;42.808;23.408;2022-11-03T14:23:30;8.35;;;2.92;;
24279;SDS011;12395;42.808;23.408;2022-11-03T14:25:56;10.60;;;3.65;;
24279;SDS011;12395;42.808;23.408;2022-11-03T14:28:21;9.85;;;3.08;;
24279;SDS011;12395;42.808;23.408;2022-11-03T14:30:46;6.68;;;2.60;;
24279;SDS011;12395;42.808;23.408;2022-11-03T14:33:12;7.50;;;2.88;;
24279;SDS011;12395;42.808;23.408;2022-11-03T14:35:37;8.15;;;2.90;;
24279;SDS011;12395;42.808;23.408;2022-11-03T14:38:02;6.78;;;2.30;;
24279;SDS011;12395;42.808;23.408;2022-11-03T14:40:28;12.30;;;2.70;;
24279;SDS011;12395;42.808;23.408;2022-11-03T14:43:12;9.98;;;2.80;;
24279;SDS011;12395;42.808;23.408;2022-11-03T14:45:37;7.22;;;2.40;;
24279;SDS011;12395;42.808;23.408;2022-11-03T14:48:02;7.60;;;2.75;;
24279;SDS011;12395;42.808;23.408;2022-11-03T14:50:28;13.30;;;3.33;;
24279;SDS011;12395;42.808;23.408;2022-11-03T14:52:53;6.90;;;2.83;;
24279;SDS011;12395;42.808;23.408;2022-11-03T14:55:19;7.20;;;3.00;;
24279;SDS011;12395;42.808;23.408;2022-11-03T14:57:44;9.95;;;3.05;;
24279;SDS011;12395;42.808;23.408;2022-11-03T15:00:09;6.68;;;3.42;;
24279;SDS011;12395;42.808;23.408;2022-11-03T15:02:35;8.95;;;3.35;;
24279;SDS011;12395;42.808;23.408;2022-11-03T15:05:01;9.65;;;3.33;;
24279;SDS011;12395;42.808;23.408;2022-11-03T15:07:26;9.75;;;3.40;;
24279;SDS011;12395;42.808;23.408;2022-11-03T15:09:51;8.13;;;3.22;;
24279;SDS011;12395;42.808;23.408;2022-11-03T15:12:17;10.35;;;3.95;;
24279;SDS011;12395;42.808;23.408;2022-11-03T15:14:42;9.43;;;3.60;;
24279;SDS011;12395;42.808;23.408;2022-11-03T15:17:07;9.40;;;3.35;;
24279;SDS011;12395;42.808;23.408;2022-11-03T15:19:33;11.70;;;3.35;;
24279;SDS011;12395;42.808;23.408;2022-11-03T15:21:58;9.10;;;3.90;;
24279;SDS011;12395;42.808;23.408;2022-11-03T15:24:23;10.55;;;4.47;;
24279;SDS011;12395;42.808;23.408;2022-11-03T15:26:49;7.85;;;3.60;;
24279;SDS011;12395;42.808;23.408;2022-11-03T15:29:15;9.15;;;3.80;;
24279;SDS011;12395;42.808;23.408;2022-11-03T15:31:40;11.73;;;3.97;;
24279;SDS011;12395;42.808;23.408;2022-11-03T15:34:06;10.82;;;3.80;;
24279;SDS011;12395;42.808;23.408;2022-11-03T15:36:31;10.55;;;3.63;;
24279;SDS011;12395;42.808;23.408;2022-11-03T15:38:57;8.77;;;3.92;;
24279;SDS011;12395;42.808;23.408;2022-11-03T15:41:22;12.98;;;4.30;;
24279;SDS011;12395;42.808;23.408;2022-11-03T15:43:48;11.57;;;4.15;;
24279;SDS011;12395;42.808;23.408;2022-11-03T15:46:15;10.25;;;4.05;;
24279;SDS011;12395;42.808;23.408;2022-11-03T15:48:41;9.30;;;4.03;;
24279;SDS011;12395;42.808;23.408;2022-11-03T15:51:08;10.25;;;3.92;;
24279;SDS011;12395;42.808;23.408;2022-11-03T15:53:34;9.30;;;4.10;;
24279;SDS011;12395;42.808;23.408;2022-11-03T15:55:59;10.52;;;4.20;;
24279;SDS011;12395;42.808;23.408;2022-11-03T15:58:25;12.40;;;4.18;;
24279;SDS011;12395;42.808;23.408;2022-11-03T16:00:50;11.95;;;4.18;;